createdAt,value
2022-10-08T00:00:50.000Z,7.5
2022-10-08T00:04:22.000Z,6.7
2022-10-08T00:07:14.000Z,6.4
2022-10-08T00:10:46.000Z,6.4
2022-10-08T00:14:19.000Z,7.2
2022-10-08T00:17:52.000Z,6.5
2022-10-08T00:21:24.000Z,6.8
2022-10-08T00:24:57.000Z,6.1
2022-10-08T00:28:30.000Z,7.6
2022-10-08T00:32:02.000Z,7.4
2022-10-08T00:35:35.000Z,8.8
2022-10-08T00:39:08.000Z,9.1
2022-10-08T00:42:40.000Z,8.1
2022-10-08T00:45:32.000Z,10
2022-10-08T00:49:05.000Z,9.2
2022-10-08T00:52:37.000Z,9.7
2022-10-08T00:56:11.000Z,9.9
2022-10-08T00:59:43.000Z,9.9
2022-10-08T01:03:16.000Z,9.9
2022-10-08T01:06:49.000Z,9.9
2022-10-08T01:10:21.000Z,9.3
2022-10-08T01:13:54.000Z,9.4
2022-10-08T01:17:26.000Z,10
2022-10-08T01:20:59.000Z,9.7
2022-10-08T01:23:50.000Z,8.9
2022-10-08T01:27:23.000Z,8.1
2022-10-08T01:30:55.000Z,10.8
2022-10-08T01:34:28.000Z,9.2
2022-10-08T01:38:01.000Z,8.4
2022-10-08T01:41:33.000Z,9.3
2022-10-08T01:45:06.000Z,7.1
2022-10-08T01:48:38.000Z,8.1
2022-10-08T01:52:11.000Z,8.7
2022-10-08T01:55:44.000Z,7.8
2022-10-08T01:59:16.000Z,6.6
2022-10-08T02:02:08.000Z,8.7
2022-10-08T02:05:40.000Z,7.1
2022-10-08T02:09:13.000Z,7.5
2022-10-08T02:12:45.000Z,6.5
2022-10-08T02:16:18.000Z,6.2
2022-10-08T02:19:51.000Z,5.8
2022-10-08T02:23:23.000Z,5.7
2022-10-08T02:26:56.000Z,6
2022-10-08T02:30:29.000Z,8.5
2022-10-08T02:34:02.000Z,7.7
2022-10-08T02:37:34.000Z,6.6
2022-10-08T02:40:25.000Z,8.7
2022-10-08T02:43:58.000Z,8.6
2022-10-08T02:47:30.000Z,6.2
2022-10-08T02:51:03.000Z,6.2
2022-10-08T02:54:36.000Z,6.2
2022-10-08T02:58:08.000Z,5.8
2022-10-08T03:01:41.000Z,6.2
2022-10-08T03:05:13.000Z,5.5
2022-10-08T03:08:46.000Z,5.1
2022-10-08T03:12:19.000Z,4.8
2022-10-08T03:15:51.000Z,4.9
2022-10-08T03:18:43.000Z,4.1
2022-10-08T03:22:15.000Z,4.3
2022-10-08T03:25:48.000Z,4.1
2022-10-08T03:29:20.000Z,4.1
2022-10-08T03:32:53.000Z,4.2
2022-10-08T03:36:26.000Z,4.1
2022-10-08T03:39:58.000Z,4.4
2022-10-08T03:43:31.000Z,3.6
2022-10-08T03:47:04.000Z,4.1
2022-10-08T03:50:36.000Z,4.4
2022-10-08T03:54:09.000Z,4.5
2022-10-08T03:57:00.000Z,6.5
2022-10-08T04:00:33.000Z,5.2
2022-10-08T04:04:06.000Z,5.1
2022-10-08T04:07:38.000Z,4
2022-10-08T04:11:11.000Z,3.7
2022-10-08T04:14:44.000Z,4.2
2022-10-08T04:18:17.000Z,3.6
2022-10-08T04:21:50.000Z,3.9
2022-10-08T04:25:22.000Z,3.5
2022-10-08T04:28:55.000Z,4
2022-10-08T04:32:28.000Z,3.7
2022-10-08T04:35:19.000Z,3.4
2022-10-08T04:38:51.000Z,3.8
2022-10-08T04:42:24.000Z,3.5
2022-10-08T04:45:57.000Z,3.9
2022-10-08T04:49:29.000Z,3.7
2022-10-08T04:53:08.000Z,4
2022-10-08T04:56:41.000Z,3.8
2022-10-08T05:00:13.000Z,3.8
2022-10-08T05:03:46.000Z,4.2
2022-10-08T05:07:19.000Z,4.2
2022-10-08T05:10:51.000Z,4.1
2022-10-08T05:13:43.000Z,3.5
2022-10-08T05:17:15.000Z,3.7
2022-10-08T05:20:48.000Z,3.6
2022-10-08T05:24:20.000Z,3.4
2022-10-08T05:27:53.000Z,3.9
2022-10-08T05:31:26.000Z,3.5
2022-10-08T05:34:58.000Z,3.7
2022-10-08T05:38:31.000Z,3.2
2022-10-08T05:42:04.000Z,3.2
2022-10-08T05:45:36.000Z,3.4
2022-10-08T05:49:09.000Z,3.2
2022-10-08T05:52:00.000Z,3.5
2022-10-08T05:55:33.000Z,3.4
2022-10-08T05:59:05.000Z,3.4
2022-10-08T06:02:38.000Z,3.3
2022-10-08T06:06:11.000Z,3.3
2022-10-08T06:09:44.000Z,3.1
2022-10-08T06:13:16.000Z,2.9
2022-10-08T06:16:49.000Z,3.2
2022-10-08T06:20:21.000Z,3
2022-10-08T06:23:57.000Z,3.1
2022-10-08T06:27:29.000Z,3.3
2022-10-08T06:30:21.000Z,4
2022-10-08T06:33:53.000Z,4.5
2022-10-08T06:37:26.000Z,3.9
2022-10-08T06:40:58.000Z,4.5
2022-10-08T06:44:31.000Z,4.4
2022-10-08T06:48:04.000Z,4.6
2022-10-08T06:51:36.000Z,4.1
2022-10-08T06:55:09.000Z,3.8
2022-10-08T06:58:42.000Z,3.8
2022-10-08T07:02:14.000Z,3.3
2022-10-08T07:05:47.000Z,4
2022-10-08T07:08:38.000Z,3.7
2022-10-08T07:12:16.000Z,3
2022-10-08T07:15:48.000Z,3.3
2022-10-08T07:19:21.000Z,3.7
2022-10-08T07:22:54.000Z,3.1
2022-10-08T07:26:26.000Z,3.6
2022-10-08T07:29:59.000Z,3.9
2022-10-08T07:33:32.000Z,3.8
2022-10-08T07:37:05.000Z,4.7
2022-10-08T07:40:38.000Z,5.1
2022-10-08T07:44:10.000Z,4.3
2022-10-08T07:47:02.000Z,4.1
2022-10-08T07:50:34.000Z,4.2
2022-10-08T07:54:07.000Z,8.5
2022-10-08T07:57:39.000Z,5.9
2022-10-08T08:01:12.000Z,4.3
2022-10-08T08:04:45.000Z,3.5
2022-10-08T08:08:18.000Z,3.4
2022-10-08T08:11:50.000Z,2.6
2022-10-08T08:15:23.000Z,2.4
2022-10-08T08:18:55.000Z,2.6
2022-10-08T08:22:28.000Z,2.9
2022-10-08T08:25:20.000Z,2.3
2022-10-08T08:28:56.000Z,2.4
2022-10-08T08:32:29.000Z,2.5
2022-10-08T08:36:01.000Z,1.9
2022-10-08T08:39:34.000Z,2.8
2022-10-08T08:43:12.000Z,1.8
2022-10-08T08:46:44.000Z,1.8
2022-10-08T08:50:17.000Z,2.2
2022-10-08T08:53:49.000Z,2
2022-10-08T08:57:22.000Z,1.9
2022-10-08T09:00:55.000Z,1.4
2022-10-08T09:03:46.000Z,1.7
2022-10-08T09:07:19.000Z,1.9
2022-10-08T09:10:51.000Z,2
2022-10-08T09:14:24.000Z,2.1
2022-10-08T09:17:56.000Z,2.3
2022-10-08T09:21:29.000Z,2.5
2022-10-08T09:25:02.000Z,2.4
2022-10-08T09:28:34.000Z,2.9
2022-10-08T09:32:07.000Z,2.5
2022-10-08T09:35:40.000Z,2.2
2022-10-08T09:39:12.000Z,2.1
2022-10-08T09:42:03.000Z,2.4
2022-10-08T09:45:36.000Z,2.2
2022-10-08T09:49:09.000Z,2.3
2022-10-08T09:52:41.000Z,2.2
2022-10-08T09:56:15.000Z,2.4
2022-10-08T09:59:47.000Z,2.3
2022-10-08T10:03:20.000Z,2.4
2022-10-08T10:06:53.000Z,2.3
2022-10-08T10:10:25.000Z,2.7
2022-10-08T10:13:58.000Z,2.3
2022-10-08T10:17:31.000Z,2.8
2022-10-08T10:20:22.000Z,3
2022-10-08T10:23:55.000Z,3.9
2022-10-08T10:27:27.000Z,3.8
2022-10-08T10:31:00.000Z,4
2022-10-08T10:34:32.000Z,4.2
2022-10-08T10:38:05.000Z,4.3
2022-10-08T10:41:38.000Z,4.1
2022-10-08T10:45:10.000Z,4.3
2022-10-08T10:48:43.000Z,4.1
2022-10-08T10:52:16.000Z,4.3
2022-10-08T10:55:48.000Z,4.9
2022-10-08T10:58:40.000Z,5.1
2022-10-08T11:02:12.000Z,4.1
2022-10-08T11:05:45.000Z,4.4
2022-10-08T11:09:18.000Z,3.8
2022-10-08T11:12:50.000Z,4.3
2022-10-08T11:16:23.000Z,4.7
2022-10-08T11:19:55.000Z,4.6
2022-10-08T11:23:28.000Z,4.5
2022-10-08T11:27:01.000Z,4.5
2022-10-08T11:30:33.000Z,4.9
2022-10-08T11:34:06.000Z,5.4
2022-10-08T11:36:57.000Z,5.1
2022-10-08T11:40:30.000Z,5.6
2022-10-08T11:44:03.000Z,5.1
2022-10-08T11:47:35.000Z,5.2
2022-10-08T11:51:08.000Z,5.6
2022-10-08T11:54:41.000Z,5.5
2022-10-08T11:58:20.000Z,5.4
2022-10-08T12:01:52.000Z,5.2
2022-10-08T12:05:26.000Z,5.3
2022-10-08T12:08:59.000Z,5.4
2022-10-08T12:12:31.000Z,5.4
2022-10-08T12:15:23.000Z,5.2
2022-10-08T12:18:55.000Z,5.3
2022-10-08T12:22:28.000Z,5.7
2022-10-08T12:26:00.000Z,5.4
2022-10-08T12:29:33.000Z,5.7
2022-10-08T12:33:05.000Z,5.7
2022-10-08T12:36:38.000Z,5.5
2022-10-08T12:40:11.000Z,5.4
2022-10-08T12:43:43.000Z,5.2
2022-10-08T12:47:16.000Z,4.7
2022-10-08T12:50:49.000Z,4.1
2022-10-08T12:53:40.000Z,4.5
2022-10-08T12:57:13.000Z,4.7
2022-10-08T13:00:45.000Z,4.2
2022-10-08T13:04:18.000Z,4.1
2022-10-08T13:07:51.000Z,4.2
2022-10-08T13:11:23.000Z,4
2022-10-08T13:14:56.000Z,3.8
2022-10-08T13:18:28.000Z,4
2022-10-08T13:22:01.000Z,3.5
2022-10-08T13:25:34.000Z,3.7
2022-10-08T13:29:06.000Z,3.4
2022-10-08T13:31:57.000Z,3.9
2022-10-08T13:35:30.000Z,3.9
2022-10-08T13:39:02.000Z,3.4
2022-10-08T13:42:35.000Z,3.3
2022-10-08T13:46:07.000Z,3.4
2022-10-08T13:49:40.000Z,4
2022-10-08T13:53:13.000Z,3.5
2022-10-08T13:56:45.000Z,3.3
2022-10-08T14:00:18.000Z,3.4
2022-10-08T14:03:51.000Z,3.3
2022-10-08T14:07:23.000Z,3.6
2022-10-08T14:10:15.000Z,3.5
2022-10-08T14:13:47.000Z,3.2
2022-10-08T14:17:20.000Z,3.4
2022-10-08T14:20:57.000Z,4
2022-10-08T14:24:30.000Z,3.6
2022-10-08T14:28:03.000Z,4
2022-10-08T14:31:36.000Z,1.6
2022-10-08T14:35:10.000Z,1.5
2022-10-08T14:38:43.000Z,1.8
2022-10-08T14:42:15.000Z,1.6
2022-10-08T14:45:48.000Z,1.7
2022-10-08T14:48:39.000Z,1.5
2022-10-08T14:52:12.000Z,1.9
2022-10-08T14:55:45.000Z,1.9
2022-10-08T14:59:37.000Z,1.7
2022-10-08T15:03:10.000Z,1.7
2022-10-08T15:06:42.000Z,1.8
2022-10-08T15:10:15.000Z,1.9
2022-10-08T15:13:47.000Z,1.7
2022-10-08T15:17:20.000Z,1.9
2022-10-08T15:20:53.000Z,2
2022-10-08T15:24:25.000Z,2
2022-10-08T15:27:16.000Z,2.2
2022-10-08T15:30:49.000Z,2.8
2022-10-08T15:34:26.000Z,2.1
2022-10-08T15:37:59.000Z,1.8
2022-10-08T15:41:34.000Z,2.1
2022-10-08T15:45:07.000Z,2.2
2022-10-08T15:48:40.000Z,2.3
2022-10-08T15:52:12.000Z,2.4
2022-10-08T15:55:45.000Z,2.5
2022-10-08T15:59:17.000Z,1.9
2022-10-08T16:02:50.000Z,2.2
2022-10-08T16:05:42.000Z,1.9
2022-10-08T16:09:14.000Z,2.1
2022-10-08T16:12:47.000Z,2.3
2022-10-08T16:16:19.000Z,9.7
2022-10-08T16:19:52.000Z,3.2
2022-10-08T16:23:25.000Z,3
2022-10-08T16:26:57.000Z,3.5
2022-10-08T16:30:30.000Z,5
2022-10-08T16:34:03.000Z,3.3
2022-10-08T16:37:35.000Z,2.9
2022-10-08T16:41:08.000Z,2.6
2022-10-08T16:43:59.000Z,2.8
2022-10-08T16:47:37.000Z,2.7
2022-10-08T16:51:10.000Z,2.1
2022-10-08T16:54:42.000Z,4.8
2022-10-08T16:58:19.000Z,10
2022-10-08T17:01:52.000Z,4.6
2022-10-08T17:05:25.000Z,3.8
2022-10-08T17:08:58.000Z,3.4
2022-10-08T17:12:30.000Z,4.3
2022-10-08T17:16:03.000Z,4
2022-10-08T17:19:36.000Z,4.2
2022-10-08T17:22:27.000Z,5.8
2022-10-08T17:25:59.000Z,7
2022-10-08T17:29:32.000Z,3.4
2022-10-08T17:33:04.000Z,3
2022-10-08T17:36:37.000Z,3.1
2022-10-08T17:40:10.000Z,3.6
2022-10-08T17:43:42.000Z,3.4
2022-10-08T17:47:15.000Z,4.9
2022-10-08T17:50:54.000Z,4.2
2022-10-08T17:54:27.000Z,4
2022-10-08T17:57:59.000Z,4.4
2022-10-08T18:00:50.000Z,4.2
2022-10-08T18:04:23.000Z,6
2022-10-08T18:07:55.000Z,11.9
2022-10-08T18:11:28.000Z,4.5
2022-10-08T18:15:01.000Z,5.3
2022-10-08T18:18:33.000Z,5.7
2022-10-08T18:22:06.000Z,6
2022-10-08T18:25:38.000Z,6.1
2022-10-08T18:29:16.000Z,5.3
2022-10-08T18:32:49.000Z,89.1
2022-10-08T18:36:21.000Z,113
2022-10-08T18:39:13.000Z,107.6
2022-10-08T18:45:21.000Z,28.4
2022-10-08T18:48:54.000Z,9.5
2022-10-08T18:52:26.000Z,8.7
2022-10-08T18:55:59.000Z,18.4
2022-10-08T18:59:31.000Z,15
2022-10-08T19:03:04.000Z,11.5
2022-10-08T19:06:37.000Z,9.6
2022-10-08T19:10:09.000Z,4.6
2022-10-08T19:13:43.000Z,4
2022-10-08T19:17:16.000Z,4.3
2022-10-08T19:20:02.000Z,4.9
2022-10-08T19:23:34.000Z,5.6
2022-10-08T19:27:07.000Z,5.4
2022-10-08T19:30:40.000Z,5
2022-10-08T19:34:12.000Z,3.9
2022-10-08T19:37:45.000Z,5
2022-10-08T19:41:18.000Z,5.3
2022-10-08T19:44:50.000Z,4.8
2022-10-08T19:48:23.000Z,5
2022-10-08T19:51:56.000Z,4.7
2022-10-08T19:55:29.000Z,5.2
2022-10-08T19:58:20.000Z,4.7
2022-10-08T20:01:52.000Z,4.8
2022-10-08T20:05:25.000Z,5.4
2022-10-08T20:08:58.000Z,5.8
2022-10-08T20:12:30.000Z,4.7
2022-10-08T20:16:03.000Z,4.1
2022-10-08T20:19:36.000Z,3.9
2022-10-08T20:23:08.000Z,4
2022-10-08T20:26:41.000Z,5.7
2022-10-08T20:30:14.000Z,5.7
2022-10-08T20:33:47.000Z,4.4
2022-10-08T20:36:38.000Z,4.3
2022-10-08T20:40:11.000Z,6.6
2022-10-08T20:43:43.000Z,3.9
2022-10-08T20:47:16.000Z,3.8
2022-10-08T20:50:48.000Z,3.6
2022-10-08T20:54:21.000Z,3.7
2022-10-08T20:57:54.000Z,6.4
2022-10-08T21:01:26.000Z,5.1
2022-10-08T21:04:59.000Z,3.9
2022-10-08T21:08:32.000Z,3.9
2022-10-08T21:12:04.000Z,3.3
2022-10-08T21:14:56.000Z,3.4
2022-10-08T21:18:28.000Z,3.5
2022-10-08T21:22:01.000Z,3.5
2022-10-08T21:25:34.000Z,3.1
2022-10-08T21:29:06.000Z,3.6
2022-10-08T21:32:39.000Z,4.1
2022-10-08T21:36:12.000Z,3.9
2022-10-08T21:39:44.000Z,3.6
2022-10-08T21:43:17.000Z,3.5
2022-10-08T21:46:50.000Z,3.5
2022-10-08T21:50:22.000Z,3.5
2022-10-08T21:53:19.000Z,3.6
2022-10-08T21:56:52.000Z,3.8
2022-10-08T22:00:24.000Z,3.6
2022-10-08T22:03:57.000Z,3.5
2022-10-08T22:07:30.000Z,3.3
2022-10-08T22:11:03.000Z,3.3
2022-10-08T22:14:36.000Z,3.6
2022-10-08T22:18:08.000Z,5.5
2022-10-08T22:21:41.000Z,5
2022-10-08T22:25:13.000Z,9
2022-10-08T22:28:46.000Z,8.6
2022-10-08T22:31:37.000Z,7.7
2022-10-08T22:35:10.000Z,5.6
2022-10-08T22:38:42.000Z,3.9
2022-10-08T22:42:15.000Z,3.1
2022-10-08T22:45:47.000Z,3.7
2022-10-08T22:49:20.000Z,3.2
2022-10-08T22:52:53.000Z,3.4
2022-10-08T22:56:25.000Z,3.2
2022-10-08T22:59:58.000Z,3.4
2022-10-08T23:03:30.000Z,3.3
2022-10-08T23:07:03.000Z,2.9
2022-10-08T23:09:55.000Z,3.2
2022-10-08T23:13:27.000Z,3.4
2022-10-08T23:17:00.000Z,3.3
2022-10-08T23:20:32.000Z,3.3
2022-10-08T23:24:05.000Z,3.7
2022-10-08T23:27:38.000Z,3.6
2022-10-08T23:31:10.000Z,3.1
2022-10-08T23:34:43.000Z,3.8
2022-10-08T23:38:16.000Z,3.8
2022-10-08T23:41:54.000Z,3.9
2022-10-08T23:45:26.000Z,3.4
2022-10-08T23:48:18.000Z,3.9
2022-10-08T23:51:50.000Z,3.6
2022-10-08T23:55:23.000Z,3.8
2022-10-08T23:58:55.000Z,3.9
